createdAt,value
2019-03-01T00:02:24.250Z,22.87
2019-03-01T00:05:14.781Z,20.72
2019-03-01T00:08:34.805Z,21.90
2019-03-01T00:11:19.533Z,21.12
2019-03-01T00:14:47.974Z,23.73
2019-03-01T00:17:56.232Z,17.77
2019-03-01T00:20:58.422Z,19.47
2019-03-01T00:23:49.870Z,17.93
2019-03-01T00:26:42.750Z,17.30
2019-03-01T00:29:40.983Z,21.30
2019-03-01T00:32:35.774Z,21.00
2019-03-01T00:35:29.518Z,18.67
2019-03-01T00:38:34.203Z,15.43
2019-03-01T00:41:23.090Z,17.97
2019-03-01T00:44:44.407Z,14.63
2019-03-01T00:47:15.168Z,20.03
2019-03-01T00:49:44.378Z,15.68
2019-03-01T00:52:14.127Z,17.63
2019-03-01T00:54:43.343Z,16.67
2019-03-01T00:57:15.627Z,16.63
2019-03-01T00:59:44.894Z,15.20
2019-03-01T01:02:15.317Z,12.53
2019-03-01T01:04:45.927Z,10.78
2019-03-01T01:07:17.311Z,15.33
2019-03-01T01:09:48.842Z,12.00
2019-03-01T01:12:18.074Z,13.03
2019-03-01T01:14:48.623Z,14.55
2019-03-01T01:17:17.794Z,11.37
2019-03-01T01:19:49.003Z,11.87
2019-03-01T01:22:18.173Z,8.80
2019-03-01T01:24:48.661Z,6.37
2019-03-01T01:27:20.866Z,8.90
2019-03-01T01:29:50.053Z,9.97
2019-03-01T01:32:22.190Z,10.70
2019-03-01T01:34:52.584Z,8.00
2019-03-01T01:37:21.798Z,9.10
2019-03-01T01:39:51.027Z,7.20
2019-03-01T01:42:26.777Z,7.92
2019-03-01T01:44:56.893Z,6.77
2019-03-01T01:47:26.080Z,4.70
2019-03-01T01:49:55.180Z,5.73
2019-03-01T01:52:28.937Z,7.33
2019-03-01T01:54:57.998Z,7.17
2019-03-01T01:57:28.524Z,7.35
2019-03-01T01:59:59.428Z,12.47
2019-03-01T02:02:28.549Z,6.77
2019-03-01T02:04:59.463Z,5.83
2019-03-01T02:07:28.803Z,8.28
2019-03-01T02:09:58.062Z,6.33
2019-03-01T02:12:30.989Z,8.33
2019-03-01T02:15:07.834Z,6.50
2019-03-01T02:17:34.132Z,6.13
2019-03-01T02:20:07.707Z,7.10
2019-03-01T02:22:36.872Z,8.03
2019-03-01T02:25:07.169Z,4.97
2019-03-01T02:27:36.665Z,6.20
2019-03-01T02:30:12.857Z,6.93
2019-03-01T02:32:52.936Z,7.77
2019-03-01T02:35:27.030Z,5.27
2019-03-01T02:37:56.098Z,5.60
2019-03-01T02:40:25.136Z,7.10
2019-03-01T02:42:54.329Z,9.60
2019-03-01T02:45:24.180Z,7.47
2019-03-01T02:47:54.656Z,7.03
2019-03-01T02:50:25.941Z,7.50
2019-03-01T02:52:55.161Z,5.50
2019-03-01T02:55:24.291Z,6.83
2019-03-01T02:57:54.723Z,6.40
2019-03-01T03:00:25.872Z,9.50
2019-03-01T03:02:54.972Z,8.67
2019-03-01T03:05:24.127Z,6.90
2019-03-01T03:07:56.325Z,4.87
2019-03-01T03:10:25.433Z,7.00
2019-03-01T03:13:03.459Z,5.67
2019-03-01T03:15:44.515Z,6.63
2019-03-01T03:18:13.875Z,7.35
2019-03-01T03:20:43.043Z,7.90
2019-03-01T03:23:12.368Z,9.07
2019-03-01T03:25:41.624Z,6.42
2019-03-01T03:28:10.859Z,8.50
2019-03-01T03:30:41.784Z,9.10
2019-03-01T03:33:10.987Z,9.83
2019-03-01T03:35:42.840Z,10.00
2019-03-01T03:38:12.053Z,8.13
2019-03-01T03:40:45.755Z,10.00
2019-03-01T03:43:15.033Z,12.10
2019-03-01T03:45:45.773Z,9.20
2019-03-01T03:48:14.973Z,13.53
2019-03-01T03:50:44.422Z,11.47
2019-03-01T03:53:17.703Z,9.27
2019-03-01T03:55:48.031Z,11.17
2019-03-01T03:58:17.274Z,14.43
2019-03-01T04:00:46.469Z,11.90
2019-03-01T04:03:15.919Z,13.05
2019-03-01T04:05:48.119Z,13.33
2019-03-01T04:08:17.369Z,12.03
2019-03-01T04:10:46.649Z,10.60
2019-03-01T04:13:16.892Z,9.90
2019-03-01T04:15:46.336Z,11.40
2019-03-01T04:18:16.952Z,8.60
2019-03-01T04:20:46.100Z,8.23
2019-03-01T04:23:16.582Z,9.13
2019-03-01T04:25:48.636Z,9.70
2019-03-01T04:28:18.789Z,12.23
2019-03-01T04:30:50.099Z,11.77
2019-03-01T04:33:21.433Z,10.73
2019-03-01T04:35:50.758Z,10.43
2019-03-01T04:38:20.098Z,8.60
2019-03-01T04:40:50.913Z,13.37
2019-03-01T04:43:23.206Z,13.07
2019-03-01T04:45:53.741Z,10.47
2019-03-01T04:48:22.909Z,9.83
2019-03-01T04:50:54.883Z,11.03
2019-03-01T04:53:24.124Z,11.97
2019-03-01T04:55:53.318Z,11.05
2019-03-01T04:58:29.777Z,13.40
2019-03-01T05:00:59.319Z,10.75
2019-03-01T05:03:28.570Z,14.67
2019-03-01T05:05:59.205Z,15.93
2019-03-01T05:08:28.435Z,12.03
2019-03-01T05:10:57.743Z,14.93
2019-03-01T05:13:26.911Z,15.53
2019-03-01T05:15:56.139Z,14.60
2019-03-01T05:18:25.200Z,13.20
2019-03-01T05:20:59.075Z,9.77
2019-03-01T05:23:29.876Z,13.87
2019-03-01T05:26:02.228Z,15.07
2019-03-01T05:28:31.465Z,12.43
2019-03-01T05:31:01.851Z,15.98
2019-03-01T05:33:32.916Z,14.63
2019-03-01T05:36:01.953Z,14.13
2019-03-01T05:38:32.760Z,18.05
2019-03-01T05:41:01.483Z,17.77
2019-03-01T05:43:30.338Z,17.60
2019-03-01T05:45:59.178Z,15.03
2019-03-01T05:48:27.921Z,15.70
2019-03-01T05:50:56.810Z,16.80
2019-03-01T05:53:26.320Z,21.05
2019-03-01T05:55:55.060Z,14.40
2019-03-01T05:58:37.926Z,15.03
2019-03-01T06:01:13.255Z,16.93
2019-03-01T06:03:53.204Z,16.57
2019-03-01T06:06:27.194Z,19.40
2019-03-01T06:09:24.894Z,16.50
2019-03-01T06:12:16.184Z,19.95
2019-03-01T06:15:15.018Z,17.37
2019-03-01T06:18:11.154Z,18.40
2019-03-01T06:21:12.380Z,18.80
2019-03-01T06:23:52.107Z,14.67
2019-03-01T06:27:09.414Z,16.67
2019-03-01T06:30:12.627Z,13.97
2019-03-01T06:32:58.320Z,13.13
2019-03-01T06:35:47.900Z,10.33
2019-03-01T06:39:17.996Z,16.60
2019-03-01T06:42:17.419Z,26.13
2019-03-01T06:45:09.755Z,23.47
2019-03-01T06:47:49.423Z,17.13
2019-03-01T06:50:20.585Z,14.00
2019-03-01T06:52:49.493Z,13.77
2019-03-01T06:55:57.445Z,13.40
2019-03-01T06:58:31.989Z,16.77
2019-03-01T07:01:05.464Z,14.57
2019-03-01T07:03:34.212Z,14.15
2019-03-01T07:06:03.697Z,14.67
2019-03-01T07:08:32.675Z,13.73
2019-03-01T07:11:01.439Z,11.73
2019-03-01T07:13:30.171Z,16.03
2019-03-01T07:15:58.925Z,21.27
2019-03-01T07:18:27.657Z,12.40
2019-03-01T07:20:56.390Z,11.73
2019-03-01T07:23:25.131Z,11.77
2019-03-01T07:25:54.894Z,9.93
2019-03-01T07:28:23.778Z,9.40
2019-03-01T07:30:52.539Z,13.60
2019-03-01T07:33:21.277Z,11.30
2019-03-01T07:35:49.994Z,11.90
2019-03-01T07:38:20.456Z,10.87
2019-03-01T07:40:49.383Z,10.90
2019-03-01T07:43:18.125Z,12.40
2019-03-01T07:45:46.882Z,10.83
2019-03-01T07:48:15.624Z,11.30
2019-03-01T07:50:44.375Z,8.53
2019-03-01T07:53:13.112Z,11.97
2019-03-01T07:55:41.848Z,12.97
2019-03-01T07:58:11.858Z,12.15
2019-03-01T08:00:40.691Z,12.27
2019-03-01T08:03:11.903Z,11.77
2019-03-01T08:05:40.456Z,10.17
2019-03-01T08:08:10.279Z,9.25
2019-03-01T08:10:39.030Z,9.83
2019-03-01T08:13:07.832Z,9.30
2019-03-01T08:15:36.581Z,11.63
2019-03-01T08:18:08.435Z,9.63
2019-03-01T08:20:35.762Z,9.55
2019-03-01T08:23:04.558Z,8.17
2019-03-01T08:25:33.372Z,11.40
2019-03-01T08:28:02.111Z,8.13
2019-03-01T08:30:31.003Z,8.68
2019-03-01T08:33:02.665Z,7.83
2019-03-01T08:35:32.323Z,7.60
2019-03-01T08:38:01.338Z,8.30
2019-03-01T08:40:30.066Z,7.33
2019-03-01T08:42:58.877Z,9.87
2019-03-01T08:45:29.768Z,6.47
2019-03-01T08:47:59.652Z,4.90
2019-03-01T08:50:28.611Z,6.80
2019-03-01T08:52:57.356Z,5.53
2019-03-01T08:55:26.217Z,5.07
2019-03-01T08:57:54.948Z,1.77
2019-03-01T09:00:26.869Z,3.43
2019-03-01T09:02:58.554Z,2.37
2019-03-01T09:05:27.381Z,3.87
2019-03-01T09:07:57.373Z,2.08
2019-03-01T09:10:29.310Z,2.30
2019-03-01T09:12:56.639Z,3.37
2019-03-01T09:15:25.457Z,4.63
2019-03-01T09:17:54.272Z,3.67
2019-03-01T09:20:23.996Z,3.00
2019-03-01T09:22:52.761Z,3.13
2019-03-01T09:25:21.632Z,3.08
2019-03-01T09:27:50.368Z,1.90
2019-03-01T09:30:21.352Z,2.00
2019-03-01T09:32:50.163Z,1.97
2019-03-01T09:35:35.644Z,2.25
2019-03-01T09:38:07.663Z,1.40
2019-03-01T09:40:36.844Z,1.77
2019-03-01T09:43:05.729Z,1.80
2019-03-01T09:45:36.429Z,1.73
2019-03-01T09:48:08.598Z,1.60
2019-03-01T09:50:38.085Z,2.65
2019-03-01T09:53:06.445Z,3.87
2019-03-01T09:55:37.668Z,2.80
2019-03-01T09:58:08.268Z,1.90
2019-03-01T10:00:38.592Z,2.08
2019-03-01T10:03:07.441Z,3.23
2019-03-01T10:05:36.184Z,2.97
2019-03-01T10:08:05.228Z,2.30
2019-03-01T10:10:34.036Z,2.50
2019-03-01T10:13:02.822Z,3.30
2019-03-01T10:15:31.806Z,4.13
2019-03-01T10:18:00.527Z,4.15
2019-03-01T10:20:29.274Z,3.60
2019-03-01T10:22:58.257Z,4.90
2019-03-01T10:25:27.369Z,6.43
2019-03-01T10:27:57.352Z,6.92
2019-03-01T10:30:26.156Z,5.73
2019-03-01T10:32:55.056Z,5.50
2019-03-01T10:35:23.909Z,5.57
2019-03-01T10:37:53.664Z,7.43
2019-03-01T10:40:22.717Z,7.10
2019-03-01T10:42:51.554Z,5.30
2019-03-01T10:45:22.821Z,4.17
2019-03-01T10:47:51.632Z,5.00
2019-03-01T10:50:21.452Z,3.72
2019-03-01T10:52:50.296Z,4.13
2019-03-01T10:55:20.621Z,4.08
2019-03-01T10:57:49.772Z,4.20
2019-03-01T11:00:25.929Z,8.53
2019-03-01T11:02:55.155Z,8.60
2019-03-01T11:05:23.967Z,7.63
2019-03-01T11:07:53.353Z,7.83
2019-03-01T11:10:27.543Z,7.00
2019-03-01T11:12:56.279Z,9.47
2019-03-01T11:15:25.384Z,10.90
2019-03-01T11:17:54.191Z,12.53
2019-03-01T11:20:24.090Z,13.40
2019-03-01T11:22:52.920Z,12.33
2019-03-01T11:25:22.300Z,13.37
2019-03-01T11:27:51.224Z,12.33
2019-03-01T11:30:22.137Z,12.17
2019-03-01T11:32:51.328Z,11.53
2019-03-01T11:35:20.193Z,10.90
2019-03-01T11:37:48.924Z,14.27
2019-03-01T11:40:20.120Z,11.27
2019-03-01T11:42:49.334Z,13.47
2019-03-01T11:45:18.414Z,15.28
2019-03-01T11:47:47.202Z,17.97
2019-03-01T11:50:18.500Z,22.52
2019-03-01T11:52:47.738Z,27.83
2019-03-01T11:55:16.614Z,23.75
2019-03-01T11:57:45.505Z,26.37
2019-03-01T12:00:17.430Z,24.50
2019-03-01T12:02:47.031Z,25.27
2019-03-01T12:05:16.392Z,24.10
2019-03-01T12:07:45.218Z,24.10
2019-03-01T12:10:16.226Z,23.63
2019-03-01T12:12:45.002Z,23.33
2019-03-01T12:15:14.052Z,23.27
2019-03-01T12:17:42.923Z,22.85
2019-03-01T12:20:14.041Z,23.13
2019-03-01T12:22:42.933Z,25.02
2019-03-01T12:25:12.962Z,24.03
2019-03-01T12:27:41.778Z,28.10
2019-03-01T12:30:15.647Z,26.23
2019-03-01T12:32:44.459Z,28.17
2019-03-01T12:35:13.358Z,35.23
2019-03-01T12:37:43.362Z,46.25
2019-03-01T12:40:14.834Z,51.37
2019-03-01T12:42:43.644Z,53.57
2019-03-01T12:45:13.929Z,53.33
2019-03-01T12:47:42.774Z,53.67
2019-03-01T12:50:11.999Z,55.67
2019-03-01T12:52:40.786Z,56.43
2019-03-01T12:55:12.350Z,60.15
2019-03-01T12:57:41.429Z,64.70
2019-03-01T13:00:13.503Z,63.93
2019-03-01T13:02:42.307Z,66.53
2019-03-01T13:05:11.633Z,70.27
2019-03-01T13:07:40.376Z,64.67
2019-03-01T13:10:13.388Z,67.40
2019-03-01T13:12:42.261Z,66.60
2019-03-01T13:15:13.771Z,69.13
2019-03-01T13:17:42.378Z,70.13
2019-03-01T13:20:13.149Z,71.03
2019-03-01T13:22:42.350Z,68.43
2019-03-01T13:25:11.300Z,70.70
2019-03-01T13:27:41.221Z,69.10
2019-03-01T13:30:15.170Z,72.17
2019-03-01T13:32:44.042Z,75.67
2019-03-01T13:35:13.365Z,71.77
2019-03-01T13:37:42.192Z,71.30
2019-03-01T13:40:12.688Z,69.90
2019-03-01T13:42:41.512Z,72.78
2019-03-01T13:45:15.090Z,71.70
2019-03-01T13:47:44.766Z,73.30
2019-03-01T13:50:14.802Z,69.43
2019-03-01T13:52:45.347Z,67.97
2019-03-01T13:55:14.990Z,64.33
2019-03-01T13:57:46.125Z,70.03
2019-03-01T14:00:18.082Z,65.50
2019-03-01T14:02:47.911Z,67.13
2019-03-01T14:05:17.420Z,69.17
2019-03-01T14:07:46.968Z,66.13
2019-03-01T14:10:17.719Z,63.48
2019-03-01T14:12:46.451Z,63.83
2019-03-01T14:15:16.326Z,56.75
2019-03-01T14:17:45.376Z,63.57
2019-03-01T14:20:19.514Z,66.05
2019-03-01T14:22:48.081Z,65.67
2019-03-01T14:25:17.345Z,60.23
2019-03-01T14:27:46.456Z,56.63
2019-03-01T14:30:17.314Z,58.37
2019-03-01T14:32:46.137Z,54.77
2019-03-01T14:35:15.741Z,52.13
2019-03-01T14:37:44.487Z,53.40
2019-03-01T14:40:14.287Z,49.05
2019-03-01T14:42:46.509Z,47.77
2019-03-01T14:45:19.051Z,46.80
2019-03-01T14:47:47.863Z,50.67
2019-03-01T14:50:18.012Z,52.77
2019-03-01T14:52:46.943Z,50.03
2019-03-01T14:55:19.827Z,45.73
2019-03-01T14:57:57.078Z,48.20
2019-03-01T15:00:41.959Z,46.67
2019-03-01T15:03:39.484Z,44.00
2019-03-01T15:06:09.521Z,45.87
2019-03-01T15:08:43.885Z,50.57
2019-03-01T15:11:13.735Z,42.63
2019-03-01T15:13:44.894Z,50.85
2019-03-01T15:16:13.724Z,48.00
2019-03-01T15:18:43.165Z,52.10
2019-03-01T15:21:12.557Z,48.77
2019-03-01T15:23:41.363Z,49.13
2019-03-01T15:26:10.611Z,48.67
2019-03-01T15:28:55.418Z,49.17
2019-03-01T15:31:22.544Z,46.13
2019-03-01T15:33:51.461Z,46.17
2019-03-01T15:36:20.357Z,47.73
2019-03-01T15:38:51.110Z,50.20
2019-03-01T15:41:19.986Z,47.67
2019-03-01T15:43:49.232Z,46.90
2019-03-01T15:46:18.437Z,50.05
2019-03-01T15:48:47.720Z,46.30
2019-03-01T15:51:17.903Z,49.50
2019-03-01T15:53:57.632Z,50.00
2019-03-01T15:56:26.725Z,49.55
2019-03-01T15:58:55.628Z,43.97
2019-03-01T16:01:25.481Z,49.03
2019-03-01T16:03:57.114Z,51.67
2019-03-01T16:06:25.414Z,48.33
2019-03-01T16:08:54.354Z,47.23
2019-03-01T16:11:23.094Z,51.77
2019-03-01T16:13:53.934Z,45.40
2019-03-01T16:16:22.709Z,48.27
2019-03-01T16:18:53.823Z,46.50
2019-03-01T16:21:24.035Z,49.93
2019-03-01T16:23:55.164Z,51.30
2019-03-01T16:26:29.734Z,48.20
2019-03-01T16:28:56.425Z,45.10
2019-03-01T16:31:28.971Z,50.77
2019-03-01T16:33:56.467Z,45.23
2019-03-01T16:36:32.145Z,51.93
2019-03-01T16:39:00.889Z,54.13
2019-03-01T16:41:29.630Z,49.43
2019-03-01T16:44:01.378Z,48.03
2019-03-01T16:46:31.472Z,49.87
2019-03-01T16:49:00.352Z,66.57
2019-03-01T16:51:29.107Z,57.77
2019-03-01T16:53:57.834Z,54.03
2019-03-01T16:56:26.644Z,60.00
2019-03-01T16:58:55.492Z,55.70
2019-03-01T17:01:26.110Z,52.20
2019-03-01T17:03:54.701Z,54.63
2019-03-01T17:06:23.599Z,53.60
2019-03-01T17:08:53.264Z,52.30
2019-03-01T17:11:22.189Z,54.53
2019-03-01T17:13:50.930Z,56.00
2019-03-01T17:16:20.470Z,53.37
2019-03-01T17:18:50.219Z,54.70
2019-03-01T17:21:18.945Z,55.00
2019-03-01T17:23:47.687Z,56.93
2019-03-01T17:26:16.426Z,50.77
2019-03-01T17:28:45.184Z,54.83
2019-03-01T17:31:13.924Z,54.00
2019-03-01T17:33:45.192Z,53.17
2019-03-01T17:36:16.916Z,44.67
2019-03-01T17:38:46.021Z,47.77
2019-03-01T17:41:14.173Z,46.10
2019-03-01T17:43:42.915Z,51.73
2019-03-01T17:46:11.652Z,50.90
2019-03-01T17:48:40.404Z,51.87
2019-03-01T17:51:09.147Z,45.53
2019-03-01T17:53:39.628Z,49.10
2019-03-01T17:56:08.393Z,49.77
2019-03-01T17:58:37.123Z,46.83
2019-03-01T18:01:05.905Z,44.60
2019-03-01T18:03:34.641Z,45.47
2019-03-01T18:06:03.408Z,47.10
2019-03-01T18:08:32.154Z,46.33
2019-03-01T18:11:00.928Z,44.27
2019-03-01T18:13:29.654Z,45.57
2019-03-01T18:15:58.405Z,39.03
2019-03-01T18:18:27.135Z,42.40
2019-03-01T18:20:55.991Z,41.47
2019-03-01T18:23:24.724Z,40.85
2019-03-01T18:25:53.522Z,40.17
2019-03-01T18:28:24.913Z,29.67
2019-03-01T18:30:56.156Z,26.07
2019-03-01T18:33:23.460Z,21.50
2019-03-01T18:35:52.499Z,21.60
2019-03-01T18:38:22.788Z,20.10
2019-03-01T18:40:51.952Z,16.90
2019-03-01T18:43:21.269Z,14.27
2019-03-01T18:45:50.014Z,11.50
2019-03-01T18:48:18.900Z,11.63
2019-03-01T18:50:47.728Z,12.82
2019-03-01T18:53:16.506Z,10.50
2019-03-01T18:55:45.264Z,11.18
2019-03-01T18:58:14.983Z,11.43
2019-03-01T19:00:45.760Z,8.48
2019-03-01T19:03:17.655Z,9.60
2019-03-01T19:05:47.356Z,10.20
2019-03-01T19:08:16.132Z,10.03
2019-03-01T19:10:53.754Z,9.33
2019-03-01T19:13:15.338Z,10.57
2019-03-01T19:15:44.151Z,10.20
2019-03-01T19:18:13.560Z,10.65
2019-03-01T19:20:43.400Z,12.30
2019-03-01T19:23:12.238Z,12.37
2019-03-01T19:25:41.076Z,13.23
2019-03-01T19:28:09.921Z,14.28
2019-03-01T19:30:38.816Z,20.30
2019-03-01T19:33:08.549Z,20.50
2019-03-01T19:35:37.273Z,20.93
2019-03-01T19:38:06.034Z,20.83
2019-03-01T19:40:34.896Z,20.73
2019-03-01T19:43:06.931Z,22.80
2019-03-01T19:45:34.150Z,25.77
2019-03-01T19:48:03.972Z,25.73
2019-03-01T19:50:32.716Z,26.33
2019-03-01T19:53:02.666Z,24.47
2019-03-01T19:55:31.495Z,22.23
2019-03-01T19:58:00.268Z,23.23
2019-03-01T20:00:29.290Z,20.97
2019-03-01T20:02:58.030Z,22.27
2019-03-01T20:05:27.765Z,22.87
2019-03-01T20:07:57.645Z,22.80
2019-03-01T20:10:26.722Z,20.17
2019-03-01T20:12:55.771Z,21.37
2019-03-01T20:15:24.656Z,22.50
2019-03-01T20:17:53.662Z,19.87
2019-03-01T20:20:22.483Z,20.53
2019-03-01T20:22:54.075Z,18.30
2019-03-01T20:25:22.082Z,20.60
2019-03-01T20:27:51.027Z,20.37
2019-03-01T20:30:28.762Z,20.07
2019-03-01T20:32:52.337Z,23.43
2019-03-01T20:35:21.527Z,20.93
2019-03-01T20:37:50.470Z,22.07
2019-03-01T20:40:22.764Z,20.47
2019-03-01T20:42:50.140Z,23.80
2019-03-01T20:45:21.504Z,21.77
2019-03-01T20:47:53.239Z,23.90
2019-03-01T20:50:21.696Z,23.42
2019-03-01T20:52:51.679Z,21.53
2019-03-01T20:55:23.852Z,23.73
2019-03-01T20:57:52.734Z,22.33
2019-03-01T21:00:26.030Z,21.90
2019-03-01T21:02:53.218Z,23.80
2019-03-01T21:05:25.050Z,22.97
2019-03-01T21:07:53.861Z,22.53
2019-03-01T21:10:23.154Z,23.73
2019-03-01T21:12:52.073Z,21.70
2019-03-01T21:15:21.476Z,23.70
2019-03-01T21:17:52.931Z,23.93
2019-03-01T21:20:21.319Z,25.10
2019-03-01T21:22:50.302Z,26.90
2019-03-01T21:25:19.670Z,27.10
2019-03-01T21:27:48.593Z,26.30
2019-03-01T21:30:24.111Z,29.53
2019-03-01T21:32:53.469Z,25.70
2019-03-01T21:35:22.399Z,26.40
2019-03-01T21:37:51.681Z,27.67
2019-03-01T21:40:22.578Z,25.53
2019-03-01T21:42:52.874Z,24.60
2019-03-01T21:45:22.999Z,27.13
2019-03-01T21:47:58.388Z,29.77
2019-03-01T21:50:27.572Z,28.70
2019-03-01T21:52:56.728Z,27.73
2019-03-01T21:55:28.635Z,25.77
2019-03-01T21:57:56.444Z,29.57
2019-03-01T22:00:29.546Z,27.87
2019-03-01T22:02:58.269Z,29.93
2019-03-01T22:05:27.466Z,31.02
2019-03-01T22:07:56.813Z,28.67
2019-03-01T22:10:26.132Z,26.05
2019-03-01T22:12:56.922Z,27.60
2019-03-01T22:15:27.687Z,26.90
2019-03-01T22:17:57.140Z,29.40
2019-03-01T22:20:27.137Z,25.90
2019-03-01T22:22:57.484Z,26.63
2019-03-01T22:25:29.616Z,30.50
2019-03-01T22:28:01.114Z,29.47
2019-03-01T22:30:30.476Z,31.03
2019-03-01T22:32:59.502Z,28.07
2019-03-01T22:35:30.408Z,30.23
2019-03-01T22:38:04.367Z,29.07
2019-03-01T22:40:31.483Z,27.73
2019-03-01T22:43:00.532Z,27.97
2019-03-01T22:45:29.719Z,26.53
2019-03-01T22:48:02.362Z,27.62
2019-03-01T22:50:34.117Z,28.27
2019-03-01T22:53:03.156Z,25.68
2019-03-01T22:55:33.534Z,25.97
2019-03-01T22:58:03.115Z,27.37
2019-03-01T23:01:24.023Z,31.47
2019-03-01T23:04:04.633Z,27.10
2019-03-01T23:06:33.577Z,33.73
2019-03-01T23:09:10.205Z,27.27
2019-03-01T23:11:36.221Z,27.27
2019-03-01T23:14:05.625Z,27.17
2019-03-01T23:16:50.406Z,24.93
2019-03-01T23:19:17.686Z,25.47
2019-03-01T23:21:46.428Z,28.37
2019-03-01T23:24:16.897Z,27.10
2019-03-01T23:26:47.648Z,26.67
2019-03-01T23:29:18.911Z,28.50
2019-03-01T23:31:46.942Z,26.13
2019-03-01T23:34:34.903Z,27.50
2019-03-01T23:37:04.414Z,28.30
2019-03-01T23:39:33.528Z,26.48
2019-03-01T23:42:02.293Z,23.95
2019-03-01T23:44:31.049Z,25.13
2019-03-01T23:47:02.830Z,23.23
2019-03-01T23:49:30.456Z,23.90
2019-03-01T23:51:59.267Z,24.83
2019-03-01T23:54:28.002Z,23.00
2019-03-01T23:56:56.752Z,23.87
2019-03-01T23:59:26.697Z,24.50
